Time;durP1;ratioP1;P1;durP2;ratioP2;P2;SDS_P1;SDS_P2;PMS_P1;PMS_P2;Temp;Humidity;BMP_temperature;BMP_pressure;BME280_temperature;BME280_humidity;BME280_pressure;Samples;Min_cycle;Max_cycle;Signal;HPM_P1;HPM_P2
2022/11/17 00:00:13;;;;;;;11.48;5.80;;;8.80;99.90;;;;;;4947964;28;20024;-76
2022/11/17 06:02:24;;;;;;;4.53;2.20;;;9.70;99.90;;;;;;5556558;23;20065;-72
2022/11/17 06:04:50;;;;;;;4.28;2.50;;;9.60;99.90;;;;;;4983236;28;20275;-73
2022/11/17 06:07:18;;;;;;;6.13;2.60;;;9.60;99.90;;;;;;4982906;28;20339;-72
2022/11/17 06:09:45;;;;;;;5.80;2.70;;;9.60;99.90;;;;;;4983424;28;20042;-72
2022/11/17 06:12:11;;;;;;;5.57;2.47;;;9.60;99.90;;;;;;4983095;28;20078;-74
2022/11/17 06:14:38;;;;;;;4.57;2.65;;;9.60;99.90;;;;;;4981712;28;20106;-72
2022/11/17 06:17:15;;;;;;;5.55;2.33;;;9.70;99.90;;;;;;4979804;28;20043;-72
2022/11/17 06:19:45;;;;;;;5.40;2.50;;;9.70;99.90;;;;;;4981978;28;20304;-71
2022/11/17 06:22:11;;;;;;;5.32;2.30;;;9.80;99.90;;;;;;4981203;28;20041;-73
2022/11/17 06:24:37;;;;;;;8.45;5.25;;;9.80;99.90;;;;;;4981714;28;20043;-72
2022/11/17 06:27:04;;;;;;;5.07;2.97;;;9.90;99.90;;;;;;4981627;28;20023;-73
2022/11/17 06:29:30;;;;;;;4.72;2.40;;;9.90;99.90;;;;;;4981561;28;20046;-74
2022/11/17 06:31:57;;;;;;;4.63;2.05;;;9.90;99.90;;;;;;4982055;28;20038;-73
2022/11/17 06:34:25;;;;;;;4.00;1.95;;;9.80;99.90;;;;;;4981790;28;20045;-72
2022/11/17 06:36:52;;;;;;;;;;;9.80;99.90;;;;;;4982303;28;20041;-72
2022/11/17 06:39:20;;;;;;;4.45;2.10;;;9.70;99.90;;;;;;4981797;28;19906;-73
2022/11/17 06:41:46;;;;;;;6.20;3.15;;;9.60;99.90;;;;;;4980965;28;20201;-73
2022/11/17 06:44:12;;;;;;;10.40;7.55;;;9.50;99.90;;;;;;4980674;28;20055;-74
2022/11/17 06:46:37;;;;;;;4.50;2.47;;;9.50;99.90;;;;;;4980875;28;20050;-72
2022/11/17 06:49:06;;;;;;;3.83;2.33;;;9.40;99.90;;;;;;4983155;28;20089;-73
2022/11/17 06:51:32;;;;;;;3.45;2.13;;;9.40;99.90;;;;;;4985891;28;20053;-74
2022/11/17 06:53:59;;;;;;;4.78;2.10;;;9.30;99.90;;;;;;4985457;28;20035;-72
2022/11/17 06:56:25;;;;;;;5.90;2.22;;;9.50;99.90;;;;;;4983919;28;20102;-72
2022/11/17 06:58:50;;;;;;;5.28;2.40;;;9.50;99.90;;;;;;4983871;28;20035;-74
2022/11/17 07:01:16;;;;;;;3.00;1.90;;;9.60;99.90;;;;;;4983362;28;20027;-72
2022/11/17 07:03:45;;;;;;;3.75;1.52;;;9.70;99.90;;;;;;4985488;28;20081;-72
2022/11/17 07:06:11;;;;;;;2.75;1.45;;;9.80;99.90;;;;;;4984689;28;20217;-73
2022/11/17 07:08:38;;;;;;;3.75;1.70;;;9.90;99.90;;;;;;4984363;28;20057;-72
2022/11/17 07:11:06;;;;;;;2.95;1.30;;;9.90;99.90;;;;;;4985301;28;20023;-73
2022/11/17 07:13:33;;;;;;;5.25;1.70;;;10.00;99.90;;;;;;4984327;28;20038;-74
2022/11/17 07:16:10;;;;;;;4.43;1.83;;;10.10;99.90;;;;;;4985377;28;20339;-71
2022/11/17 07:18:37;;;;;;;3.67;1.80;;;10.10;99.90;;;;;;4968819;28;20472;-73
2022/11/17 07:21:05;;;;;;;5.80;1.40;;;10.10;99.90;;;;;;4986571;28;20043;-72
2022/11/17 07:23:33;;;;;;;4.65;1.50;;;10.20;99.90;;;;;;4985136;28;20082;-73
2022/11/17 07:26:00;;;;;;;3.30;1.23;;;10.20;99.90;;;;;;4986439;28;20034;-72
2022/11/17 07:28:26;;;;;;;3.38;1.10;;;10.40;99.90;;;;;;4986073;28;20093;-74
2022/11/17 07:30:52;;;;;;;3.00;1.02;;;10.50;99.90;;;;;;4985132;28;20093;-73
2022/11/17 07:33:18;;;;;;;5.25;2.28;;;10.60;99.90;;;;;;4985281;28;20050;-73
2022/11/17 07:35:45;;;;;;;2.70;1.17;;;10.60;99.90;;;;;;4985696;28;20109;-74
2022/11/17 07:38:11;;;;;;;3.72;1.27;;;10.60;99.90;;;;;;4984728;28;20034;-72
2022/11/17 07:40:37;;;;;;;3.80;1.30;;;10.70;99.90;;;;;;4985120;28;20022;-74
2022/11/17 07:43:03;;;;;;;3.10;1.00;;;10.80;99.90;;;;;;4985020;28;20037;-71
2022/11/17 07:45:31;;;;;;;4.35;1.02;;;10.80;99.90;;;;;;4983548;28;20057;-71
2022/11/17 07:47:59;;;;;;;2.88;1.30;;;10.90;99.90;;;;;;4985005;28;20026;-73
2022/11/17 07:50:26;;;;;;;26.25;1.65;;;10.90;99.90;;;;;;4979894;28;20098;-73
2022/11/17 07:52:54;;;;;;;3.42;1.08;;;10.80;99.90;;;;;;4965479;28;20087;-71
2022/11/17 07:55:20;;;;;;;1.73;0.60;;;10.90;99.90;;;;;;4963777;28;20100;-72
2022/11/17 07:58:00;;;;;;;5.18;1.08;;;11.00;99.90;;;;;;4970119;28;20047;-73
2022/11/17 08:00:30;;;;;;;3.40;0.90;;;11.10;99.90;;;;;;4963819;28;20035;-72
2022/11/17 08:03:00;;;;;;;3.92;0.73;;;11.30;99.90;;;;;;4967197;28;20047;-74
2022/11/17 08:05:29;;;;;;;3.22;0.60;;;11.50;99.90;;;;;;4984266;28;20019;-76
2022/11/17 08:07:59;;;;;;;2.60;0.93;;;11.60;99.90;;;;;;4983876;28;20268;-72
2022/11/17 08:10:31;;;;;;;2.63;0.90;;;11.70;99.90;;;;;;4983958;28;20027;-74
2022/11/17 08:12:59;;;;;;;3.55;0.80;;;11.80;99.90;;;;;;4967413;28;20038;-74
2022/11/17 08:15:27;;;;;;;2.80;0.60;;;11.90;99.90;;;;;;4982787;28;20031;-75
2022/11/17 08:17:57;;;;;;;2.33;0.57;;;12.00;99.90;;;;;;4984174;28;20025;-75
2022/11/17 08:20:24;;;;;;;2.78;0.50;;;12.10;99.90;;;;;;4984145;28;20050;-73
2022/11/17 08:22:55;;;;;;;1.92;0.40;;;12.20;99.90;;;;;;4984183;28;20061;-73
2022/11/17 08:25:23;;;;;;;1.92;0.40;;;12.30;99.90;;;;;;4983725;28;20030;-75
2022/11/17 08:27:52;;;;;;;4.18;0.55;;;12.40;99.90;;;;;;4982347;28;20034;-73
2022/11/17 08:30:19;;;;;;;4.13;0.50;;;12.50;99.90;;;;;;4983261;28;20031;-74
2022/11/17 08:32:50;;;;;;;1.75;0.50;;;12.60;99.90;;;;;;4973128;28;20408;-72
2022/11/17 08:35:16;;;;;;;1.15;0.32;;;12.60;99.90;;;;;;4977598;28;20035;-75
2022/11/17 08:37:42;;;;;;;2.80;0.38;;;12.60;99.90;;;;;;4983986;28;20201;-73
2022/11/17 08:40:11;;;;;;;3.13;0.52;;;12.60;99.90;;;;;;4984052;28;20022;-70
2022/11/17 08:42:37;;;;;;;3.05;0.50;;;12.50;99.90;;;;;;4982489;28;20516;-72
2022/11/17 08:45:05;;;;;;;1.33;0.30;;;12.60;99.90;;;;;;4984018;28;20073;-73
2022/11/17 08:47:33;;;;;;;1.15;0.40;;;12.60;99.90;;;;;;4983156;28;20037;-70
2022/11/17 08:50:00;;;;;;;2.27;0.30;;;12.60;99.90;;;;;;4972839;28;20035;-73
2022/11/17 08:52:27;;;;;;;2.10;0.20;;;12.60;99.90;;;;;;4962851;29;20466;-73
2022/11/17 08:54:53;;;;;;;2.95;0.30;;;12.60;99.90;;;;;;4964238;28;20037;-72
2022/11/17 08:57:22;;;;;;;2.05;0.30;;;12.60;99.90;;;;;;4964598;28;20031;-72
2022/11/17 08:59:48;;;;;;;1.75;0.35;;;12.60;99.90;;;;;;4968916;28;20198;-74
2022/11/17 09:02:17;;;;;;;2.38;0.38;;;12.60;99.90;;;;;;4962376;29;20039;-74
2022/11/17 09:04:45;;;;;;;2.72;0.50;;;12.70;99.90;;;;;;4980786;28;20098;-73
2022/11/17 09:07:11;;;;;;;4.38;1.15;;;12.70;99.90;;;;;;4964880;28;20041;-71
2022/11/17 09:09:36;;;;;;;1.13;0.20;;;12.80;99.90;;;;;;4968233;28;20023;-73
2022/11/17 09:12:02;;;;;;;2.78;0.40;;;12.80;99.90;;;;;;4982872;28;20030;-74
2022/11/17 09:14:28;;;;;;;1.45;0.20;;;12.90;99.90;;;;;;4981265;28;20034;-74
2022/11/17 09:16:54;;;;;;;2.05;0.30;;;13.00;99.90;;;;;;4982947;28;20047;-74
2022/11/17 09:19:26;;;;;;;1.60;0.13;;;13.00;99.90;;;;;;4982796;28;20019;-75
2022/11/17 09:21:51;;;;;;;1.55;0.32;;;13.10;99.90;;;;;;4983000;28;20090;-73
2022/11/17 09:24:17;;;;;;;1.27;0.30;;;13.20;99.90;;;;;;4981202;28;20027;-71
2022/11/17 09:26:43;;;;;;;1.75;0.35;;;13.30;99.90;;;;;;4971856;28;20031;-74
2022/11/17 09:29:09;;;;;;;1.98;0.30;;;13.40;99.90;;;;;;4962658;29;20377;-73
2022/11/17 09:31:35;;;;;;;1.35;0.20;;;13.50;99.90;;;;;;4963330;28;20031;-70
2022/11/17 09:34:01;;;;;;;1.73;0.20;;;13.60;99.90;;;;;;4962461;29;20086;-74
2022/11/17 09:36:27;;;;;;;2.33;0.30;;;13.60;99.90;;;;;;4963114;28;20035;-77
2022/11/17 09:38:53;;;;;;;3.30;0.55;;;13.70;99.90;;;;;;4963695;29;20038;-75
2022/11/17 09:41:31;;;;;;;3.40;0.60;;;13.80;99.90;;;;;;4962204;29;20031;-73
2022/11/17 09:44:15;;;;;;;3.15;0.32;;;13.90;99.90;;;;;;4964034;28;20103;-74
2022/11/17 09:47:00;;;;;;;2.67;0.30;;;14.10;99.90;;;;;;4963554;28;20035;-76
2022/11/17 09:49:40;;;;;;;4.07;0.30;;;14.20;99.90;;;;;;4970072;28;20382;-74
2022/11/17 09:52:12;;;;;;;3.20;0.30;;;14.20;99.90;;;;;;4982687;28;20320;-76
2022/11/17 09:54:52;;;;;;;2.45;0.35;;;14.30;99.90;;;;;;4981950;28;20093;-74
2022/11/17 09:57:35;;;;;;;1.75;0.30;;;14.10;99.90;;;;;;4981266;28;20030;-75
2022/11/17 10:00:09;;;;;;;2.88;0.70;;;14.10;99.90;;;;;;4966277;28;20031;-77
2022/11/17 10:02:35;;;;;;;3.60;0.50;;;14.00;99.90;;;;;;4962288;28;20342;-73
2022/11/17 10:05:01;;;;;;;2.90;0.30;;;13.90;99.90;;;;;;4981581;28;20154;-74
2022/11/17 10:07:29;;;;;;;2.40;0.28;;;13.90;99.90;;;;;;4981982;28;20039;-72
2022/11/17 10:09:57;;;;;;;1.13;0.30;;;13.90;99.90;;;;;;4982349;28;20380;-74
2022/11/17 10:12:31;;;;;;;3.45;0.30;;;13.80;99.90;;;;;;4981888;28;20026;-73
2022/11/17 10:15:00;;;;;;;0.93;0.30;;;14.00;99.90;;;;;;4976220;28;20055;-73
2022/11/17 10:17:25;;;;;;;2.78;0.65;;;14.00;99.90;;;;;;4971048;28;20031;-74
2022/11/17 10:19:51;;;;;;;2.22;0.63;;;14.10;99.90;;;;;;4968871;28;20213;-72
2022/11/17 10:22:35;;;;;;;3.53;0.70;;;14.20;99.90;;;;;;4963725;28;20094;-72
2022/11/17 10:25:01;;;;;;;3.42;0.63;;;14.20;99.90;;;;;;4981525;28;20041;-73
2022/11/17 10:27:33;;;;;;;4.43;0.70;;;14.20;99.90;;;;;;4966422;28;20031;-73
2022/11/17 10:30:02;;;;;;;2.42;0.52;;;14.30;99.90;;;;;;4963075;28;20031;-72
2022/11/17 10:32:31;;;;;;;2.97;0.70;;;14.40;99.90;;;;;;4963256;28;20231;-74
2022/11/17 10:35:13;;;;;;;3.42;0.77;;;14.60;99.90;;;;;;4982392;28;20094;-74
2022/11/17 10:37:50;;;;;;;4.22;0.50;;;14.60;99.90;;;;;;4980677;28;20035;-73
2022/11/17 10:40:19;;;;;;;3.35;0.65;;;15.10;99.90;;;;;;4981263;28;20038;-73
2022/11/17 10:42:58;;;;;;;2.28;0.40;;;15.60;99.90;;;;;;4982124;28;20320;-75
2022/11/17 10:45:24;;;;;;;6.35;0.52;;;16.20;99.60;;;;;;4981170;28;20384;-73
2022/11/17 10:48:18;;;;;;;2.40;0.43;;;16.40;98.50;;;;;;4979227;28;20034;-73
2022/11/17 10:50:55;;;;;;;5.45;0.80;;;16.00;98.30;;;;;;4963595;28;20027;-73
2022/11/17 10:53:42;;;;;;;5.18;0.80;;;15.70;99.10;;;;;;4961423;29;20031;-75
2022/11/17 10:56:24;;;;;;;3.00;0.50;;;15.90;98.90;;;;;;4962351;28;20047;-74
2022/11/17 10:59:08;;;;;;;4.63;0.57;;;15.90;98.20;;;;;;4969103;28;20023;-73
2022/11/17 11:01:37;;;;;;;4.93;0.90;;;15.80;98.40;;;;;;4961462;29;20035;-72
2022/11/17 11:04:24;;;;;;;2.40;0.70;;;15.70;98.40;;;;;;4980695;28;20179;-75
2022/11/17 11:07:25;;;;;;;1.83;0.57;;;15.90;98.30;;;;;;4981730;28;20082;-74
2022/11/17 11:09:57;;;;;;;2.72;0.75;;;16.80;97.40;;;;;;4981446;28;20240;-74
2022/11/17 11:12:35;;;;;;;4.82;1.02;;;17.20;96.00;;;;;;4980258;28;20105;-75
2022/11/17 11:15:08;;;;;;;3.35;0.60;;;17.70;95.40;;;;;;4980512;28;20106;-74
2022/11/17 11:17:33;;;;;;;2.97;0.38;;;18.40;94.50;;;;;;4981225;28;20054;-73
2022/11/17 11:20:03;;;;;;;3.72;0.70;;;18.60;93.10;;;;;;4980572;28;20030;-72
2022/11/17 11:23:09;;;;;;;3.83;0.90;;;18.30;93.10;;;;;;4980880;28;20065;-73
2022/11/17 11:25:55;;;;;;;3.88;0.70;;;18.80;92.80;;;;;;4980230;28;20027;-73
2022/11/17 11:29:13;;;;;;;5.72;0.70;;;19.20;92.30;;;;;;4981287;28;20023;-75
2022/11/17 11:31:56;;;;;;;3.97;0.70;;;19.20;91.20;;;;;;4945213;28;20070;-72
2022/11/17 11:35:02;;;;;;;2.40;0.35;;;18.90;91.50;;;;;;4979850;28;20086;-73
2022/11/17 11:37:51;;;;;;;5.45;0.63;;;18.60;91.70;;;;;;4973649;28;20078;-76
2022/11/17 11:40:41;;;;;;;3.50;0.60;;;18.90;91.70;;;;;;4984857;28;20081;-73
2022/11/17 11:43:28;;;;;;;3.58;0.60;;;18.60;91.30;;;;;;4966048;28;20043;-76
2022/11/17 11:46:09;;;;;;;4.80;0.73;;;17.80;92.30;;;;;;4977561;28;20339;-74
2022/11/17 11:48:39;;;;;;;3.60;0.70;;;16.90;93.80;;;;;;4983511;28;20813;-75
2022/11/17 11:51:15;;;;;;;5.55;0.95;;;16.20;94.80;;;;;;4983612;28;20205;-74
2022/11/17 11:54:16;;;;;;;6.03;0.98;;;15.80;95.50;;;;;;4983186;28;20051;-74
2022/11/17 11:56:47;;;;;;;4.63;0.90;;;15.60;96.20;;;;;;4984275;28;20047;-73
2022/11/17 11:59:36;;;;;;;7.25;1.00;;;15.30;96.50;;;;;;4983451;28;20030;-73
2022/11/17 12:02:43;;;;;;;4.05;0.80;;;15.40;96.50;;;;;;4984446;28;20037;-73
2022/11/17 12:05:31;;;;;;;4.82;0.90;;;16.30;96.00;;;;;;4966821;28;20075;-73
2022/11/17 12:08:41;;;;;;;4.63;0.73;;;17.20;94.30;;;;;;4984508;28;20038;-74
2022/11/17 12:14:00;;;;;;;1.98;0.43;;;18.50;92.30;;;;;;4924692;29;20087;-74
2022/11/17 12:16:33;;;;;;;3.70;0.52;;;19.30;92.10;;;;;;4924097;29;20048;-76
2022/11/17 12:19:21;;;;;;;3.03;0.73;;;19.80;90.30;;;;;;4924431;29;20321;-76
2022/11/17 12:22:00;;;;;;;4.82;0.70;;;20.50;89.40;;;;;;4924387;29;20389;-74
2022/11/17 12:24:39;;;;;;;3.30;0.80;;;21.80;87.50;;;;;;4941856;29;20031;-76
2022/11/17 12:27:32;;;;;;;3.60;0.80;;;22.70;83.00;;;;;;4943719;29;20032;-74
2022/11/17 12:29:58;;;;;;;3.63;0.70;;;21.50;82.80;;;;;;4927298;29;20035;-73
2022/11/17 12:32:42;;;;;;;3.13;0.68;;;21.30;83.80;;;;;;4942818;29;20147;-75
2022/11/17 12:35:27;;;;;;;3.50;0.80;;;20.00;85.60;;;;;;4943241;29;20051;-73
2022/11/17 12:38:18;;;;;;;3.67;0.70;;;19.60;87.00;;;;;;4943441;29;20035;-74
2022/11/17 12:40:53;;;;;;;4.95;1.10;;;19.60;87.90;;;;;;4944263;28;20035;-76
2022/11/17 12:43:26;;;;;;;6.80;0.70;;;19.50;87.10;;;;;;4983939;28;20018;-77
2022/11/17 12:45:52;;;;;;;5.53;0.70;;;19.30;87.70;;;;;;4983150;28;20054;-73
2022/11/17 12:48:59;;;;;;;5.50;1.08;;;19.30;88.50;;;;;;4997565;28;20177;-74
2022/11/17 12:51:38;;;;;;;5.93;1.13;;;19.30;87.90;;;;;;4982832;28;20035;-74
2022/11/17 12:54:23;;;;;;;3.15;0.95;;;18.80;89.10;;;;;;4984718;28;20046;-72
2022/11/17 12:56:51;;;;;;;4.75;0.80;;;18.70;89.70;;;;;;4985052;28;20050;-75
2022/11/17 12:59:35;;;;;;;;;;;19.30;88.30;;;;;;4984119;28;20030;-73
2022/11/17 13:02:30;;;;;;;3.25;0.63;;;19.20;88.40;;;;;;4984444;28;19953;-74
2022/11/17 13:05:02;;;;;;;3.10;0.65;;;19.30;89.40;;;;;;4984947;28;20035;-72
2022/11/17 13:07:28;;;;;;;5.32;1.13;;;19.50;87.20;;;;;;4984044;28;20034;-72
2022/11/17 13:09:58;;;;;;;6.45;0.90;;;19.60;87.00;;;;;;4984452;28;20327;-74
2022/11/17 13:12:32;;;;;;;3.85;0.90;;;19.20;87.00;;;;;;4984629;28;20041;-74
2022/11/17 13:15:04;;;;;;;4.60;1.00;;;19.20;87.20;;;;;;4984012;28;20044;-74
2022/11/17 13:17:41;;;;;;;5.50;0.95;;;19.10;86.90;;;;;;4983770;28;20037;-73
2022/11/17 13:20:28;;;;;;;5.68;1.00;;;19.20;87.50;;;;;;4984380;28;20027;-73
2022/11/17 13:23:22;;;;;;;5.43;1.00;;;18.50;87.40;;;;;;4984415;28;20092;-73
2022/11/17 13:25:49;;;;;;;4.50;0.88;;;18.00;89.00;;;;;;4983763;28;20112;-73
2022/11/17 13:28:30;;;;;;;3.97;0.90;;;17.80;90.40;;;;;;4985994;28;20022;-73
2022/11/17 13:30:57;;;;;;;6.93;1.08;;;18.10;88.90;;;;;;4986139;28;20031;-72
2022/11/17 13:33:24;;;;;;;4.80;0.80;;;18.00;88.50;;;;;;4987136;28;20256;-73
2022/11/17 13:36:18;;;;;;;5.97;1.27;;;17.90;88.50;;;;;;4987982;28;20273;-72
2022/11/17 13:38:53;;;;;;;2.50;0.70;;;17.60;88.70;;;;;;4986083;28;20228;-71
2022/11/17 13:41:22;;;;;;;5.05;0.80;;;17.40;88.80;;;;;;4985461;28;20027;-77
2022/11/17 13:43:49;;;;;;;4.10;0.77;;;16.90;90.20;;;;;;4983413;28;20031;-76
2022/11/17 13:46:18;;;;;;;3.60;0.90;;;16.40;90.90;;;;;;4984044;28;20316;-74
2022/11/17 13:48:46;;;;;;;4.45;0.70;;;16.20;91.30;;;;;;4983757;28;20061;-73
2022/11/17 13:51:23;;;;;;;2.37;0.80;;;16.20;91.50;;;;;;4983471;28;20062;-74
2022/11/17 13:53:52;;;;;;;3.70;0.90;;;16.20;91.70;;;;;;4984519;28;20106;-73
2022/11/17 13:56:37;;;;;;;4.80;0.90;;;16.10;91.90;;;;;;4983916;28;20078;-73
2022/11/17 13:59:16;;;;;;;5.57;0.98;;;16.20;92.30;;;;;;4982716;28;20027;-71
2022/11/17 14:01:43;;;;;;;9.00;1.60;;;16.20;92.10;;;;;;4982951;28;20059;-73
2022/11/17 14:04:12;;;;;;;7.18;0.98;;;16.40;91.90;;;;;;4983712;28;20031;-74
2022/11/17 14:07:11;;;;;;;4.95;1.08;;;16.80;91.60;;;;;;4984250;28;20023;-74
2022/11/17 14:09:37;;;;;;;6.88;1.30;;;17.00;91.20;;;;;;4971485;28;20336;-75
2022/11/17 14:12:10;;;;;;;7.28;2.10;;;17.00;91.40;;;;;;4982061;28;20033;-75
2022/11/17 14:14:42;;;;;;;8.48;1.20;;;17.20;91.10;;;;;;4982877;28;20031;-74
2022/11/17 14:17:18;;;;;;;4.90;1.15;;;16.80;91.20;;;;;;4982190;28;20031;-72
2022/11/17 14:19:44;;;;;;;7.20;1.45;;;16.50;91.90;;;;;;4983022;28;20037;-75
2022/11/17 14:22:13;;;;;;;8.65;1.38;;;16.10;92.00;;;;;;4981007;28;20035;-73
2022/11/17 14:24:39;;;;;;;5.75;1.30;;;15.80;92.60;;;;;;4976505;28;20027;-73
2022/11/17 14:27:14;;;;;;;8.88;1.00;;;15.40;93.10;;;;;;4972883;28;20317;-73
2022/11/17 14:29:40;;;;;;;9.43;1.88;;;15.40;93.30;;;;;;4961399;28;20031;-72
2022/11/17 14:32:05;;;;;;;8.80;1.90;;;15.40;93.60;;;;;;4976317;28;20038;-74
2022/11/17 14:34:31;;;;;;;9.32;1.35;;;15.40;93.80;;;;;;4981893;28;20034;-75
2022/11/17 14:36:57;;;;;;;8.70;1.70;;;15.40;93.60;;;;;;4981704;28;20034;-75
2022/11/17 14:39:25;;;;;;;7.72;1.58;;;15.30;93.90;;;;;;4981996;28;20030;-76
2022/11/17 14:41:51;;;;;;;8.70;1.65;;;15.10;93.90;;;;;;4982166;28;20023;-74
2022/11/17 14:44:17;;;;;;;5.40;1.17;;;15.00;94.30;;;;;;4980684;28;20089;-73
2022/11/17 14:46:43;;;;;;;6.65;1.33;;;14.80;94.40;;;;;;4981391;28;20059;-73
2022/11/17 14:49:09;;;;;;;8.40;1.58;;;14.70;94.70;;;;;;4980463;28;20046;-74
2022/11/17 14:51:35;;;;;;;6.93;1.95;;;14.60;94.90;;;;;;4981240;28;20043;-75
2022/11/17 14:54:02;;;;;;;7.57;1.50;;;14.50;95.60;;;;;;4981617;28;20142;-77
2022/11/17 14:56:28;;;;;;;8.05;1.27;;;14.40;95.70;;;;;;4980728;28;20041;-75
2022/11/17 14:58:57;;;;;;;7.38;1.63;;;14.30;95.90;;;;;;4981745;28;20031;-74
2022/11/17 15:01:31;;;;;;;6.20;1.35;;;14.20;96.10;;;;;;4981652;28;20038;-75
2022/11/17 15:03:59;;;;;;;6.35;1.15;;;14.10;96.30;;;;;;4981554;28;20311;-74
2022/11/17 15:06:25;;;;;;;8.43;1.95;;;14.00;96.40;;;;;;4980644;28;20102;-74
2022/11/17 15:08:57;;;;;;;7.38;1.38;;;14.00;96.90;;;;;;4979733;28;20309;-73
2022/11/17 15:11:24;;;;;;;8.63;1.85;;;14.00;97.20;;;;;;4984643;28;20091;-72
2022/11/17 15:13:50;;;;;;;10.77;1.92;;;13.90;96.90;;;;;;4984846;28;20031;-74
2022/11/17 15:16:17;;;;;;;5.85;1.60;;;13.90;97.50;;;;;;4985461;28;20121;-75
2022/11/17 15:18:47;;;;;;;10.75;2.03;;;13.80;97.20;;;;;;4984848;28;20057;-75
2022/11/17 15:21:14;;;;;;;11.40;1.98;;;13.70;97.10;;;;;;4984997;28;20038;-74
2022/11/17 15:23:40;;;;;;;7.85;1.40;;;13.60;97.40;;;;;;4983658;28;20069;-75
2022/11/17 15:26:09;;;;;;;5.18;1.95;;;13.60;97.70;;;;;;4985390;28;20057;-73
2022/11/17 15:28:36;;;;;;;11.10;1.80;;;13.60;97.40;;;;;;4984744;28;20073;-73
2022/11/17 15:31:14;;;;;;;8.45;1.73;;;13.50;97.40;;;;;;4985252;28;20038;-74
2022/11/17 15:33:41;;;;;;;8.68;1.40;;;13.40;97.70;;;;;;4984581;28;20027;-74
2022/11/17 15:36:09;;;;;;;7.65;1.63;;;13.40;98.00;;;;;;4985544;28;20290;-73
2022/11/17 15:38:42;;;;;;;7.47;1.70;;;13.20;98.40;;;;;;4985183;28;20029;-74
2022/11/17 15:41:09;;;;;;;7.88;1.83;;;13.00;98.60;;;;;;4984994;28;20030;-74
2022/11/17 15:43:37;;;;;;;8.43;2.53;;;13.00;99.00;;;;;;4984629;28;20022;-74
2022/11/17 15:46:07;;;;;;;8.77;2.10;;;12.90;99.20;;;;;;4984854;28;20050;-72
2022/11/17 15:48:38;;;;;;;9.98;2.63;;;12.80;99.30;;;;;;4985231;28;20031;-73
2022/11/17 15:51:06;;;;;;;10.32;3.15;;;12.70;99.70;;;;;;4985271;28;20027;-73
2022/11/17 15:53:35;;;;;;;12.35;3.17;;;12.60;99.90;;;;;;4972644;28;20065;-73
2022/11/17 15:56:04;;;;;;;;;;;12.50;99.90;;;;;;4985406;28;20274;-73
2022/11/17 15:58:34;;;;;;;9.85;1.73;;;12.50;99.90;;;;;;4984178;28;20215;-75
2022/11/17 16:01:15;;;;;;;9.68;2.33;;;12.50;99.90;;;;;;4984421;28;20038;-73
2022/11/17 16:03:43;;;;;;;9.65;2.63;;;12.40;99.90;;;;;;4983377;28;20073;-74
2022/11/17 16:06:10;;;;;;;14.68;4.65;;;12.30;99.90;;;;;;4983422;28;20031;-74
2022/11/17 16:08:36;;;;;;;15.63;5.97;;;12.30;99.90;;;;;;4983727;28;20061;-72
2022/11/17 16:11:03;;;;;;;10.30;3.85;;;12.20;99.90;;;;;;4984745;28;20030;-74
2022/11/17 16:13:30;;;;;;;9.85;3.05;;;12.20;99.90;;;;;;4984802;28;20312;-73
2022/11/17 16:15:56;;;;;;;9.55;2.05;;;12.10;99.90;;;;;;4983453;28;20038;-73
2022/11/17 16:18:23;;;;;;;8.05;2.42;;;12.10;99.90;;;;;;4984617;28;20186;-72
2022/11/17 16:20:49;;;;;;;12.40;3.85;;;12.00;99.90;;;;;;4983657;28;20078;-73
2022/11/17 16:23:15;;;;;;;7.53;3.13;;;11.90;99.90;;;;;;4982213;28;20027;-74
2022/11/17 16:25:43;;;;;;;8.70;2.47;;;11.90;99.90;;;;;;4983814;28;20237;-73
2022/11/17 16:28:10;;;;;;;9.65;2.70;;;11.90;99.90;;;;;;4984105;28;20089;-72
2022/11/17 16:30:52;;;;;;;7.32;2.15;;;11.80;99.90;;;;;;4978693;28;20036;-75
2022/11/17 16:33:18;;;;;;;10.20;2.30;;;11.90;99.90;;;;;;4964968;28;20031;-73
2022/11/17 16:35:44;;;;;;;8.25;2.13;;;11.90;99.90;;;;;;4964292;29;20035;-73
2022/11/17 16:38:15;;;;;;;13.40;4.22;;;11.80;99.90;;;;;;4964543;29;20035;-74
2022/11/17 16:40:42;;;;;;;10.55;2.78;;;11.70;99.90;;;;;;4964311;28;20031;-72
2022/11/17 16:43:12;;;;;;;12.52;2.40;;;11.70;99.90;;;;;;4963383;29;20079;-72
2022/11/17 16:49:07;;;;;;;16.30;6.65;;;11.70;99.90;;;;;;4964258;28;20035;-72
2022/11/17 16:51:36;;;;;;;11.20;3.10;;;11.70;99.90;;;;;;4963839;29;20114;-74
2022/11/17 16:54:04;;;;;;;13.55;3.08;;;11.50;99.90;;;;;;4974420;28;20399;-73
2022/11/17 16:56:36;;;;;;;;;;;11.50;99.90;;;;;;4984622;28;20042;-71
2022/11/17 16:59:05;;;;;;;9.48;2.00;;;11.60;99.90;;;;;;4982556;28;19906;-73
2022/11/17 17:01:35;;;;;;;8.35;2.05;;;11.70;99.90;;;;;;4982059;28;20190;-72
2022/11/17 17:04:06;;;;;;;5.15;1.30;;;11.70;99.90;;;;;;4983580;28;20031;-72
2022/11/17 17:07:06;;;;;;;6.82;2.10;;;11.80;99.90;;;;;;4983388;28;20030;-72
2022/11/17 17:09:32;;;;;;;10.60;3.38;;;11.90;99.90;;;;;;4983138;28;20045;-72
2022/11/17 17:14:53;;;;;;;9.52;3.30;;;12.00;99.90;;;;;;4985937;28;20069;-71
2022/11/17 17:17:20;;;;;;;6.35;2.10;;;12.00;99.90;;;;;;4983164;28;20224;-72
2022/11/17 17:19:54;;;;;;;13.35;3.70;;;12.00;99.90;;;;;;4982490;28;20037;-72
2022/11/17 17:22:21;;;;;;;8.55;3.05;;;12.00;99.90;;;;;;4983088;28;20051;-74
2022/11/17 17:27:56;;;;;;;11.07;3.40;;;11.90;99.90;;;;;;4982665;28;20045;-72
2022/11/17 17:30:22;;;;;;;7.70;2.58;;;11.80;99.90;;;;;;4980893;28;20030;-73
2022/11/17 17:32:47;;;;;;;8.52;2.70;;;11.70;99.90;;;;;;4982002;28;20042;-73
2022/11/17 17:35:13;;;;;;;8.15;2.80;;;11.70;99.90;;;;;;4982750;28;20046;-72
2022/11/17 17:37:39;;;;;;;11.48;4.13;;;11.80;99.90;;;;;;4981709;28;20034;-73
2022/11/17 17:40:07;;;;;;;19.02;9.25;;;11.80;99.90;;;;;;4982933;28;20030;-71
2022/11/17 17:56:37;;;;;;;13.10;4.53;;;12.10;99.90;;;;;;4961101;29;20050;-71
2022/11/17 17:59:02;;;;;;;10.80;3.80;;;12.20;99.90;;;;;;4963159;28;20066;-72
2022/11/17 18:01:40;;;;;;;9.98;3.38;;;12.20;99.90;;;;;;4961404;29;20031;-72
2022/11/17 18:04:07;;;;;;;7.05;2.47;;;12.30;99.90;;;;;;4963314;29;20106;-72
2022/11/17 18:06:41;;;;;;;8.30;2.38;;;12.30;99.90;;;;;;4963060;28;20031;-71
2022/11/17 18:09:09;;;;;;;9.90;3.75;;;12.30;99.90;;;;;;4971609;28;20026;-74
2022/11/17 18:11:35;;;;;;;6.97;2.83;;;12.30;99.90;;;;;;4982555;28;20023;-72
2022/11/17 18:14:01;;;;;;;5.65;1.73;;;12.30;99.90;;;;;;4981964;28;20531;-73
2022/11/17 18:16:32;;;;;;;5.32;1.95;;;12.30;99.90;;;;;;4982221;28;20324;-72
2022/11/17 18:19:03;;;;;;;6.85;2.03;;;12.30;99.90;;;;;;4981900;28;20531;-73
2022/11/17 18:21:35;;;;;;;9.38;2.45;;;12.30;99.90;;;;;;4982342;28;20153;-73
2022/11/17 18:24:07;;;;;;;8.38;2.72;;;12.30;99.90;;;;;;4981623;28;20178;-72
2022/11/17 18:26:34;;;;;;;7.18;2.40;;;12.30;99.90;;;;;;4982231;28;20054;-75
2022/11/17 18:29:10;;;;;;;8.93;2.10;;;12.30;99.90;;;;;;4981560;28;20030;-75
2022/11/17 18:31:37;;;;;;;8.73;2.60;;;12.30;99.90;;;;;;4968836;28;20042;-73
2022/11/17 18:34:11;;;;;;;7.25;2.92;;;12.30;99.90;;;;;;4962195;28;20034;-74
2022/11/17 18:36:37;;;;;;;6.38;2.17;;;12.20;99.90;;;;;;4962708;28;20077;-73
2022/11/17 18:39:03;;;;;;;5.85;2.53;;;12.30;99.90;;;;;;4962374;28;20028;-75
2022/11/17 18:41:30;;;;;;;5.70;2.10;;;12.20;99.90;;;;;;4962855;28;20039;-78
2022/11/17 18:43:57;;;;;;;4.60;2.13;;;12.30;99.90;;;;;;4962341;28;20038;-73
2022/11/17 18:46:23;;;;;;;8.15;2.65;;;12.20;99.90;;;;;;4966057;28;20037;-73
2022/11/17 18:48:51;;;;;;;8.15;3.80;;;12.30;99.90;;;;;;4966246;28;20031;-73
2022/11/17 18:51:19;;;;;;;8.30;4.40;;;12.30;99.90;;;;;;4966599;28;20381;-73
2022/11/17 18:53:45;;;;;;;;;;;12.30;99.90;;;;;;4975775;28;20031;-74
2022/11/17 18:56:13;;;;;;;8.40;2.30;;;12.40;99.90;;;;;;4985910;28;19950;-71
2022/11/17 18:58:40;;;;;;;11.00;3.90;;;12.40;99.90;;;;;;4984196;28;20093;-73
2022/11/17 19:01:12;;;;;;;7.65;2.55;;;12.50;99.90;;;;;;4985967;28;20303;-75
2022/11/17 19:03:39;;;;;;;8.73;3.55;;;12.50;99.90;;;;;;4985102;28;20312;-72
2022/11/17 19:06:06;;;;;;;6.72;2.38;;;12.50;99.90;;;;;;4983620;28;20379;-73
2022/11/17 19:08:33;;;;;;;9.77;4.38;;;12.50;99.90;;;;;;4985444;28;20175;-73
2022/11/17 19:11:00;;;;;;;6.03;2.53;;;12.60;99.90;;;;;;4985044;28;20034;-72
2022/11/17 19:13:29;;;;;;;12.55;6.60;;;12.60;99.90;;;;;;4985711;28;20260;-73
2022/11/17 19:15:56;;;;;;;4.10;1.98;;;12.60;99.90;;;;;;4984746;28;20061;-73
2022/11/17 19:18:21;;;;;;;7.65;3.47;;;12.70;99.90;;;;;;4985258;28;20027;-72
2022/11/17 19:20:47;;;;;;;6.22;2.00;;;12.70;99.90;;;;;;4984567;28;20061;-72
2022/11/17 19:23:13;;;;;;;6.38;1.70;;;12.70;99.90;;;;;;4985177;28;20035;-73
2022/11/17 19:25:40;;;;;;;9.20;3.35;;;12.60;99.90;;;;;;4985022;28;20378;-73
2022/11/17 19:28:09;;;;;;;14.10;3.00;;;12.60;99.90;;;;;;4984450;28;20086;-73
2022/11/17 19:30:35;;;;;;;7.43;3.30;;;12.70;99.90;;;;;;4980656;28;20035;-73
2022/11/17 19:33:01;;;;;;;3.72;1.25;;;12.70;99.90;;;;;;4966998;28;20113;-75
2022/11/17 19:35:27;;;;;;;5.25;1.33;;;12.70;99.90;;;;;;4967080;29;20270;-73